Odessa, Florida
Current Conditions -  °F | °C
As of 10:53 AM on Monday 22 Dec 2014 (Local Time) from KTPA Reporting Station
Overcast Overcast  
Wind Chill: 73°   Ceiling: 1500
Heat Index: 73°   Visibility: 10mi
Dew Point: 66°   Wind: 7mph
Humidity: 79%   Direction: 150°SSE
Pressure: 30"   Gusts: NA
Location:  28.19°N, 82.59°W
Report Text: KTPA 221553Z 15006KT 10SM BKN015 OVC047 23/19 A3000 RMK AO2 SLP158 T02280189
Loading
Personal Weather Stations






























Interactive Weather Map New forecast layout! Learn more

10-Day Weather Forecast

Advertisements
Track Severe Weather on mobile